Time;durP1;ratioP1;P1;durP2;ratioP2;P2;SDS_P1;SDS_P2;PMS_P1;PMS_P2;Temp;Humidity;BMP_temperature;BMP_pressure;BME280_temperature;BME280_humidity;BME280_pressure;Samples;Min_cycle;Max_cycle;Signal;HPM_P1;HPM_P2
2023/02/21 02:14:47;;;;;;;40.60;25.67;;;230.80;2252.80;;;;;;5094262;28;20035;-67
2023/02/21 02:17:23;;;;;;;32.75;22.55;;;230.80;2252.80;;;;;;5094081;28;20016;-64
2023/02/21 02:20:01;;;;;;;15.90;10.35;;;230.80;2252.80;;;;;;5094062;28;20347;-67
2023/02/21 02:23:08;;;;;;;14.35;9.55;;;230.80;2252.80;;;;;;5094076;28;20070;-65
2023/02/21 02:25:49;;;;;;;17.88;11.88;;;230.70;2252.80;;;;;;5094023;28;20021;-63
2023/02/21 02:28:26;;;;;;;27.60;17.15;;;230.70;2252.80;;;;;;5093867;28;20467;-66
2023/02/21 02:31:27;;;;;;;30.27;18.75;;;230.60;2252.80;;;;;;5093855;28;20044;-64
2023/02/21 02:34:17;;;;;;;14.15;9.05;;;230.60;2252.80;;;;;;5011692;28;20038;-63
2023/02/21 02:37:01;;;;;;;7.20;4.63;;;205.60;2252.80;;;;;;5011557;28;20042;-65
2023/02/21 02:39:45;;;;;;;49.78;38.60;;;230.50;2252.80;;;;;;5011547;28;20023;-65
2023/02/21 02:42:18;;;;;;;22.42;14.07;;;230.60;2252.80;;;;;;5011290;28;20042;-66
2023/02/21 02:44:50;;;;;;;;;;;230.60;2252.80;;;;;;5011461;28;20046;-68
2023/02/21 02:47:24;;;;;;;21.20;19.02;;;230.60;2252.80;;;;;;5010496;28;19996;-63
2023/02/21 02:49:51;;;;;;;20.60;13.63;;;230.60;2252.80;;;;;;5010140;28;20026;-67
2023/02/21 02:52:17;;;;;;;13.10;7.20;;;230.60;2252.80;;;;;;5010322;28;20054;-64
2023/02/21 02:54:43;;;;;;;11.40;7.18;;;230.50;2252.80;;;;;;5010134;28;20476;-66
2023/02/21 02:57:11;;;;;;;11.05;6.80;;;205.70;2252.80;;;;;;5010418;28;20038;-64
2023/02/21 02:59:44;;;;;;;8.85;5.65;;;205.60;2252.80;;;;;;5010157;28;20018;-66
2023/02/21 03:02:40;;;;;;;9.10;5.55;;;205.50;2252.80;;;;;;5009638;28;20117;-63
2023/02/21 03:05:24;;;;;;;6.85;4.55;;;205.30;2252.80;;;;;;5010025;28;20038;-66
2023/02/21 03:07:58;;;;;;;11.48;6.78;;;205.20;2252.80;;;;;;5010016;28;20651;-62
2023/02/21 03:10:42;;;;;;;10.85;5.43;;;205.10;2252.80;;;;;;5084324;28;20039;-64
2023/02/21 03:13:17;;;;;;;9.65;5.85;;;205.10;2252.80;;;;;;5091940;28;20020;-66
2023/02/21 03:15:58;;;;;;;11.63;7.57;;;205.10;2252.80;;;;;;5092119;28;20073;-68
2023/02/21 03:18:29;;;;;;;9.10;5.57;;;205.30;2252.80;;;;;;5091967;28;20370;-65
2023/02/21 03:21:00;;;;;;;9.07;5.15;;;205.50;2252.80;;;;;;5091760;28;20462;-67
2023/02/21 03:23:30;;;;;;;10.75;5.88;;;205.30;2252.80;;;;;;5091788;28;20094;-62
2023/02/21 03:26:02;;;;;;;12.15;7.05;;;204.80;2252.80;;;;;;5091887;28;20044;-66
2023/02/21 03:28:29;;;;;;;15.02;7.50;;;205.20;2252.80;;;;;;5092148;28;20027;-63
2023/02/21 03:30:56;;;;;;;13.80;5.90;;;205.20;2252.80;;;;;;5091624;28;20097;-62
2023/02/21 03:33:23;;;;;;;10.15;5.32;;;205.20;2252.80;;;;;;5091486;28;20024;-67
2023/02/21 03:35:49;;;;;;;8.40;5.25;;;205.10;2252.80;;;;;;5090002;28;20366;-69
2023/02/21 03:38:14;;;;;;;7.72;4.70;;;205.10;2252.80;;;;;;5091248;28;20031;-62
2023/02/21 03:40:40;;;;;;;8.40;4.88;;;205.10;2252.80;;;;;;5091428;28;20031;-64
2023/02/21 03:43:06;;;;;;;8.85;5.93;;;205.10;2252.80;;;;;;5091294;28;20050;-67
2023/02/21 03:45:33;;;;;;;8.57;4.88;;;205.10;2252.80;;;;;;5039691;28;1185011;-65
2023/02/21 03:47:59;;;;;;;6.05;4.40;;;205.20;2252.80;;;;;;5072214;28;20036;-69
2023/02/21 03:50:25;;;;;;;6.85;4.63;;;205.10;2252.80;;;;;;5071858;28;20027;-65
2023/02/21 03:52:50;;;;;;;11.55;5.68;;;205.00;2252.80;;;;;;5071852;28;20024;-66
2023/02/21 03:55:17;;;;;;;8.43;4.97;;;204.90;2252.80;;;;;;5072032;28;20024;-68
2023/02/21 03:57:42;;;;;;;9.98;5.60;;;204.90;2252.80;;;;;;5071895;28;20021;-66
2023/02/21 04:00:09;;;;;;;11.68;6.13;;;204.80;2252.80;;;;;;5071911;28;20522;-66
2023/02/21 04:02:34;;;;;;;7.13;4.05;;;180.10;2252.80;;;;;;5071647;28;20040;-62
2023/02/21 04:05:00;;;;;;;11.15;7.50;;;180.10;2252.80;;;;;;5071752;28;20044;-64
2023/02/21 04:07:26;;;;;;;8.60;6.32;;;180.10;2252.80;;;;;;5071758;28;20027;-65
2023/02/21 04:09:52;;;;;;;9.57;6.55;;;180.00;2252.80;;;;;;5071443;28;20020;-68
2023/02/21 04:12:18;;;;;;;9.77;6.57;;;179.90;2252.80;;;;;;5070758;28;20075;-62
2023/02/21 04:14:43;;;;;;;15.65;9.25;;;179.70;2252.80;;;;;;5071336;28;20458;-63
2023/02/21 04:17:09;;;;;;;10.27;6.28;;;179.90;2252.80;;;;;;5071654;28;20028;-64
2023/02/21 04:19:35;;;;;;;7.30;5.30;;;179.80;2252.80;;;;;;5071437;28;20028;-62
2023/02/21 04:22:01;;;;;;;12.07;6.03;;;179.60;2252.80;;;;;;5071257;28;20124;-64
2023/02/21 04:24:26;;;;;;;6.88;4.15;;;179.40;2252.80;;;;;;5071634;28;20103;-69
2023/02/21 04:26:52;;;;;;;5.20;3.15;;;179.50;2252.80;;;;;;5071255;28;20441;-69
2023/02/21 04:29:18;;;;;;;7.20;3.67;;;179.70;2252.80;;;;;;5071397;28;20023;-68
2023/02/21 04:31:44;;;;;;;5.88;3.03;;;179.90;2252.80;;;;;;5071207;28;20036;-65
2023/02/21 04:34:10;;;;;;;9.70;5.28;;;204.80;2252.80;;;;;;5071067;28;20031;-63
2023/02/21 04:36:37;;;;;;;6.95;4.47;;;205.10;2252.80;;;;;;5071416;28;20043;-63
2023/02/21 04:39:03;;;;;;;8.88;4.15;;;205.20;2252.80;;;;;;5071005;28;20032;-62
2023/02/21 04:41:29;;;;;;;7.65;4.13;;;205.20;2252.80;;;;;;5070889;28;20024;-62
2023/02/21 04:43:54;;;;;;;8.27;4.22;;;204.90;2252.80;;;;;;5070925;28;20039;-67
2023/02/21 04:46:20;;;;;;;5.70;3.13;;;180.10;2252.80;;;;;;5070717;28;20055;-63
2023/02/21 04:48:48;;;;;;;6.43;2.97;;;179.70;2252.80;;;;;;5071123;28;20028;-63
2023/02/21 04:51:17;;;;;;;6.45;3.38;;;179.50;2252.80;;;;;;5070812;28;20028;-66
2023/02/21 04:53:45;;;;;;;5.00;3.05;;;179.60;2252.80;;;;;;5070664;28;20055;-66
2023/02/21 04:56:11;;;;;;;6.38;2.78;;;179.80;2252.80;;;;;;5070620;28;20121;-64
2023/02/21 04:58:37;;;;;;;8.63;5.18;;;180.00;2252.80;;;;;;5070718;28;20105;-64
2023/02/21 05:01:04;;;;;;;8.60;6.40;;;204.80;2252.80;;;;;;5070748;28;20025;-64
2023/02/21 05:03:29;;;;;;;16.88;10.35;;;180.10;2252.80;;;;;;5070806;28;20058;-61
2023/02/21 05:05:55;;;;;;;17.35;10.70;;;204.80;2252.80;;;;;;5070781;28;20398;-63
2023/02/21 05:08:22;;;;;;;15.73;9.02;;;204.80;2252.80;;;;;;5070666;28;20024;-65
2023/02/21 05:10:48;;;;;;;8.25;5.50;;;180.10;2252.80;;;;;;5052379;28;20039;-66
2023/02/21 05:13:14;;;;;;;5.05;3.90;;;180.10;2252.80;;;;;;5070281;28;20032;-63
2023/02/21 05:15:40;;;;;;;7.57;4.57;;;180.10;2252.80;;;;;;5070447;28;20115;-63
2023/02/21 05:18:06;;;;;;;6.70;4.05;;;180.00;2252.80;;;;;;5070622;28;20028;-62
2023/02/21 05:20:32;;;;;;;5.60;3.50;;;180.00;2252.80;;;;;;5070493;28;20031;-68
2023/02/21 05:22:57;;;;;;;8.25;4.35;;;179.90;2252.80;;;;;;5070225;28;20037;-66
2023/02/21 05:25:23;;;;;;;10.10;5.22;;;179.90;2252.80;;;;;;5070260;28;20024;-65
2023/02/21 05:27:51;;;;;;;7.55;3.55;;;179.90;2252.80;;;;;;5070475;28;20033;-66
2023/02/21 05:30:20;;;;;;;8.77;5.50;;;179.90;2252.80;;;;;;5070371;28;20032;-64
2023/02/21 05:32:45;;;;;;;11.15;5.05;;;180.10;2252.80;;;;;;5070675;28;20036;-65
2023/02/21 05:35:14;;;;;;;8.40;4.03;;;180.10;2252.80;;;;;;5070158;28;20134;-68
2023/02/21 05:37:39;;;;;;;5.95;3.58;;;180.10;2252.80;;;;;;5070372;28;20035;-64
2023/02/21 05:40:06;;;;;;;8.07;4.05;;;204.80;2252.80;;;;;;5070380;28;20111;-66
2023/02/21 05:42:32;;;;;;;5.80;3.38;;;204.90;2252.80;;;;;;5069946;28;20129;-63
2023/02/21 05:44:58;;;;;;;5.38;3.35;;;205.10;2252.80;;;;;;5070141;28;20511;-64
2023/02/21 05:47:24;;;;;;;5.55;2.83;;;205.20;2252.80;;;;;;5070057;28;20033;-68
2023/02/21 05:49:50;;;;;;;5.65;2.80;;;205.30;2252.80;;;;;;5070549;28;20021;-68
2023/02/21 05:52:16;;;;;;;9.00;3.47;;;205.40;2252.80;;;;;;5070385;28;20082;-65
2023/02/21 05:54:43;;;;;;;5.65;2.85;;;205.50;2252.80;;;;;;5070103;28;20449;-63
2023/02/21 05:57:09;;;;;;;6.55;3.97;;;205.50;2252.80;;;;;;5070238;28;20033;-67
2023/02/21 05:59:36;;;;;;;5.35;3.13;;;205.30;2252.80;;;;;;5070234;28;20024;-64
2023/02/21 06:02:02;;;;;;;7.78;3.80;;;205.10;2252.80;;;;;;5070064;28;20044;-64
2023/02/21 06:04:28;;;;;;;10.10;6.60;;;205.10;2252.80;;;;;;5070283;28;20017;-66
2023/02/21 06:06:53;;;;;;;8.52;3.97;;;205.20;2252.80;;;;;;5069837;28;20024;-68
2023/02/21 06:09:19;;;;;;;8.82;4.05;;;205.30;2252.80;;;;;;5069970;28;20025;-61
2023/02/21 06:11:45;;;;;;;8.95;3.38;;;205.30;2252.80;;;;;;5069964;28;20422;-64
2023/02/21 06:14:17;;;;;;;6.57;3.33;;;205.40;2252.80;;;;;;5069894;28;20036;-64
2023/02/21 06:16:45;;;;;;;6.00;3.67;;;205.60;2252.80;;;;;;5069896;28;20028;-62
2023/02/21 06:19:13;;;;;;;17.08;10.18;;;205.70;2252.80;;;;;;5069585;28;20048;-68
2023/02/21 06:21:42;;;;;;;14.35;9.02;;;205.70;2252.80;;;;;;5069765;28;20028;-65
2023/02/21 06:24:09;;;;;;;41.17;23.08;;;230.40;2252.80;;;;;;5069941;28;20025;-62
2023/02/21 06:26:36;;;;;;;101.72;91.45;;;230.50;2252.80;;;;;;5069853;28;20029;-63
2023/02/21 06:29:05;;;;;;;16.58;12.52;;;230.60;2252.80;;;;;;5069746;28;20497;-65
2023/02/21 06:31:31;;;;;;;42.15;34.55;;;230.60;2252.80;;;;;;5069944;28;20017;-63
2023/02/21 06:33:58;;;;;;;678.25;470.42;;;230.60;2252.80;;;;;;5069790;28;20070;-64
2023/02/21 06:36:26;;;;;;;234.00;140.73;;;230.60;2252.80;;;;;;5071667;28;20412;-64
2023/02/21 06:38:54;;;;;;;24.25;15.40;;;230.50;2252.80;;;;;;5073308;28;20024;-65
2023/02/21 06:41:30;;;;;;;30.85;19.20;;;230.50;2252.80;;;;;;5073061;28;20037;-64
2023/02/21 06:43:58;;;;;;;96.40;58.97;;;230.50;2252.80;;;;;;5073697;28;20059;-61
2023/02/21 06:46:26;;;;;;;30.80;18.38;;;230.60;2252.80;;;;;;5072984;28;20398;-64
2023/02/21 06:48:52;;;;;;;17.02;11.35;;;230.70;2252.80;;;;;;5073197;28;20021;-65
2023/02/21 06:51:18;;;;;;;133.80;92.63;;;256.00;2252.80;;;;;;5073135;28;20028;-62
2023/02/21 06:53:47;;;;;;;94.03;55.55;;;256.50;2252.80;;;;;;5072767;28;20078;-64
2023/02/21 06:56:13;;;;;;;142.07;84.30;;;256.50;2252.80;;;;;;5073019;28;20083;-65
2023/02/21 06:58:39;;;;;;;91.40;58.65;;;256.40;2252.80;;;;;;5073023;28;20425;-65
2023/02/21 07:01:04;;;;;;;129.00;81.13;;;256.30;2252.80;;;;;;5073168;28;20390;-64
2023/02/21 07:03:30;;;;;;;125.20;72.28;;;256.20;2252.80;;;;;;5056510;28;20029;-64
2023/02/21 07:05:56;;;;;;;83.50;50.13;;;256.30;2252.80;;;;;;5041215;28;20025;-62
2023/02/21 07:08:21;;;;;;;39.35;26.90;;;256.30;2252.80;;;;;;5041859;28;20030;-62
2023/02/21 07:10:47;;;;;;;35.15;25.00;;;256.50;2227.20;;;;;;5043139;28;20025;-62
2023/02/21 07:13:13;;;;;;;25.92;21.05;;;256.60;2176.00;;;;;;5050638;28;20115;-62
2023/02/21 07:15:39;;;;;;;35.78;17.42;;;256.70;2150.40;;;;;;5052479;28;20025;-64
2023/02/21 07:18:04;;;;;;;30.95;19.15;;;256.80;2176.00;;;;;;5052577;28;20028;-60
2023/02/21 07:20:32;;;;;;;19.80;13.35;;;256.90;2176.00;;;;;;5052412;28;20017;-62
2023/02/21 07:22:58;;;;;;;90.00;54.88;;;256.90;2150.40;;;;;;5052326;28;20123;-66
2023/02/21 07:25:23;;;;;;;103.18;67.93;;;281.60;2201.60;;;;;;5052134;28;20045;-62
2023/02/21 07:27:51;;;;;;;87.80;54.55;;;281.70;2201.60;;;;;;5054086;28;20416;-62
2023/02/21 07:30:17;;;;;;;45.03;28.17;;;281.70;2201.60;;;;;;5035731;28;20375;-63
2023/02/21 07:32:43;;;;;;;62.03;37.38;;;281.80;2176.00;;;;;;5053693;28;20070;-69
2023/02/21 07:35:08;;;;;;;97.80;59.70;;;281.80;2201.60;;;;;;5054371;28;20021;-62
2023/02/21 07:37:34;;;;;;;121.90;78.15;;;281.70;2201.60;;;;;;5054492;28;20028;-63
2023/02/21 07:40:00;;;;;;;142.63;99.45;;;282.00;2201.60;;;;;;5053983;28;20061;-62
2023/02/21 07:42:26;;;;;;;199.27;97.22;;;308.00;2150.40;;;;;;5052644;28;20041;-62
2023/02/21 07:44:56;;;;;;;158.80;101.70;;;358.80;2022.40;;;;;;5052303;28;20053;-62
2023/02/21 07:47:23;;;;;;;166.05;113.43;;;384.30;1920.00;;;;;;5050648;28;20039;-63
2023/02/21 07:49:48;;;;;;;172.40;122.05;;;409.90;1894.40;;;;;;5052088;28;20071;-62
2023/02/21 07:52:14;;;;;;;171.77;125.43;;;435.30;1843.20;;;;;;5051760;28;20025;-63
2023/02/21 07:54:40;;;;;;;183.65;146.50;;;461.70;1689.60;;;;;;5051518;28;20180;-63
2023/02/21 07:57:06;;;;;;;154.23;119.85;;;512.20;1587.20;;;;;;5052041;28;20029;-63
2023/02/21 07:59:32;;;;;;;195.00;146.98;;;512.50;1536.00;;;;;;5044719;28;20383;-63
2023/02/21 08:01:58;;;;;;;187.77;141.38;;;512.10;1561.60;;;;;;5042431;28;20136;-62
2023/02/21 08:04:24;;;;;;;172.50;134.95;;;487.30;1587.20;;;;;;5039306;28;20017;-61
2023/02/21 08:06:50;;;;;;;167.73;128.65;;;487.30;1561.60;;;;;;5040331;28;20039;-63
2023/02/21 08:09:16;;;;;;;175.13;129.48;;;512.70;1510.40;;;;;;5041615;28;20071;-62
2023/02/21 08:11:42;;;;;;;150.27;117.32;;;538.30;1484.80;;;;;;5040990;28;20024;-63
2023/02/21 08:14:07;;;;;;;152.45;127.43;;;563.30;1459.20;;;;;;5039377;28;20079;-66
2023/02/21 08:16:33;;;;;;;151.80;126.35;;;589.20;1408.00;;;;;;5037856;28;20074;-64
2023/02/21 08:19:00;;;;;;;229.77;188.93;;;615.10;1331.20;;;;;;5031758;28;20095;-63
2023/02/21 08:21:25;;;;;;;226.13;189.85;;;640.70;1280.00;;;;;;5031644;28;20037;-62
2023/02/21 08:23:56;;;;;;;210.27;183.30;;;665.90;1254.40;;;;;;5031296;28;20032;-65
2023/02/21 08:26:21;;;;;;;225.57;192.60;;;691.40;1228.80;;;;;;5031333;28;20021;-67
2023/02/21 08:28:47;;;;;;;199.93;177.07;;;717.10;1203.20;;;;;;5031184;28;20204;-64
2023/02/21 08:31:13;;;;;;;202.50;172.60;;;717.20;1152.00;;;;;;5031073;28;20459;-65
2023/02/21 08:33:39;;;;;;;195.68;165.38;;;716.90;1177.60;;;;;;5031290;28;20032;-65
2023/02/21 08:36:06;;;;;;;181.20;151.65;;;691.50;1177.60;;;;;;5031343;28;20033;-66
2023/02/21 08:38:31;;;;;;;199.85;178.05;;;691.80;1177.60;;;;;;5031059;28;20549;-65
2023/02/21 08:40:57;;;;;;;181.73;158.70;;;691.20;1203.20;;;;;;5031035;28;20025;-65
2023/02/21 08:43:24;;;;;;;115.18;103.10;;;692.00;1152.00;;;;;;5042976;28;20071;-65
2023/02/21 08:45:49;;;;;;;176.98;158.57;;;692.10;1126.40;;;;;;5070838;28;20071;-66
2023/02/21 08:48:15;;;;;;;163.82;146.10;;;691.30;1177.60;;;;;;5058943;28;20037;-62
2023/02/21 08:50:41;;;;;;;167.30;149.27;;;665.90;1228.80;;;;;;5040563;28;20021;-66
2023/02/21 08:53:07;;;;;;;138.88;123.82;;;640.90;1203.20;;;;;;5038979;28;20467;-68
2023/02/21 08:55:33;;;;;;;109.35;97.50;;;691.40;1177.60;;;;;;5040707;28;20049;-65
2023/02/21 08:57:59;;;;;;;96.72;82.63;;;692.10;1126.40;;;;;;5050260;28;20048;-62
2023/02/21 09:00:28;;;;;;;125.35;111.57;;;691.80;1126.40;;;;;;5050699;28;20021;-64
2023/02/21 09:02:54;;;;;;;132.05;118.00;;;691.40;1152.00;;;;;;5050543;28;20083;-64
2023/02/21 09:05:26;;;;;;;107.53;94.93;;;691.20;1177.60;;;;;;5050511;28;20490;-64
2023/02/21 09:07:57;;;;;;;84.85;72.07;;;691.70;1152.00;;;;;;5050328;28;20028;-64
2023/02/21 09:10:23;;;;;;;67.82;60.03;;;692.10;1126.40;;;;;;5050162;28;20068;-64
2023/02/21 09:12:49;;;;;;;66.38;56.65;;;692.00;1126.40;;;;;;5050495;28;20025;-64
2023/02/21 09:15:16;;;;;;;75.97;57.28;;;717.20;1126.40;;;;;;5050655;28;20044;-64
2023/02/21 09:17:42;;;;;;;70.03;62.35;;;742.60;1126.40;;;;;;5050332;28;20017;-64
2023/02/21 09:20:10;;;;;;;72.63;59.35;;;717.10;1152.00;;;;;;5050626;28;20375;-64
2023/02/21 09:22:36;;;;;;;63.15;52.70;;;691.90;1152.00;;;;;;5050765;28;20037;-63
2023/02/21 09:25:03;;;;;;;64.80;55.15;;;691.30;1152.00;;;;;;5050805;28;20021;-64
2023/02/21 09:27:37;;;;;;;68.43;59.67;;;691.30;1177.60;;;;;;5050748;28;20078;-64
2023/02/21 09:30:15;;;;;;;68.95;61.65;;;666.50;1177.60;;;;;;5050121;28;20021;-65
2023/02/21 09:32:41;;;;;;;66.90;58.72;;;666.50;1203.20;;;;;;5050414;28;20025;-65
2023/02/21 09:35:09;;;;;;;56.67;49.35;;;640.90;1203.20;;;;;;5050143;28;20020;-65
2023/02/21 09:37:39;;;;;;;44.72;38.85;;;640.60;1228.80;;;;;;5049831;28;20032;-64
2023/02/21 09:40:23;;;;;;;53.83;38.90;;;614.40;1331.20;;;;;;5050044;28;20103;-65
2023/02/21 09:42:52;;;;;;;47.22;35.67;;;589.20;1382.40;;;;;;5050072;28;20036;-64
2023/02/21 09:45:21;;;;;;;55.63;41.45;;;564.00;1382.40;;;;;;5039326;28;20510;-64
2023/02/21 09:47:52;;;;;;;50.65;35.58;;;563.60;1433.60;;;;;;5040691;28;20022;-64
2023/02/21 09:50:26;;;;;;;60.50;43.05;;;563.20;1408.00;;;;;;5037899;28;20021;-64
2023/02/21 09:52:54;;;;;;;52.30;39.28;;;538.20;1433.60;;;;;;5040878;28;20467;-61
2023/02/21 09:55:25;;;;;;;44.92;33.25;;;538.00;1408.00;;;;;;5049813;28;20029;-66
2023/02/21 09:57:52;;;;;;;51.80;37.35;;;537.80;1408.00;;;;;;5049865;28;20090;-65
2023/02/21 10:00:24;;;;;;;32.97;25.30;;;512.90;1433.60;;;;;;5050162;28;20021;-62
2023/02/21 10:03:11;;;;;;;34.53;20.70;;;512.50;1408.00;;;;;;5049772;28;20064;-65
2023/02/21 10:05:58;;;;;;;28.23;20.27;;;512.60;1382.40;;;;;;5046027;28;20041;-63
2023/02/21 10:08:24;;;;;;;34.08;23.23;;;512.40;1382.40;;;;;;5041094;28;20383;-61
2023/02/21 10:10:57;;;;;;;30.23;18.20;;;512.40;1408.00;;;;;;5042383;28;20017;-64
2023/02/21 10:13:22;;;;;;;;;;;512.70;1382.40;;;;;;5045396;28;20030;-64
2023/02/21 10:16:13;;;;;;;22.02;16.40;;;512.60;1408.00;;;;;;5045056;28;19955;-62
2023/02/21 10:18:48;;;;;;;32.20;17.65;;;512.10;1433.60;;;;;;5045601;28;20024;-60
2023/02/21 10:21:36;;;;;;;28.00;14.27;;;512.40;1459.20;;;;;;5045209;28;20391;-62
2023/02/21 10:24:14;;;;;;;18.33;11.20;;;512.50;1433.60;;;;;;5045120;28;20045;-62
2023/02/21 10:26:47;;;;;;;25.73;15.88;;;512.10;1433.60;;;;;;5044557;28;20020;-62
2023/02/21 10:29:24;;;;;;;31.70;15.43;;;512.20;1459.20;;;;;;5034190;28;20113;-63
2023/02/21 10:31:55;;;;;;;21.20;13.70;;;512.40;1459.20;;;;;;5044638;28;20107;-62
2023/02/21 10:34:25;;;;;;;21.13;13.45;;;512.60;1459.20;;;;;;5044922;28;20032;-63
2023/02/21 10:36:52;;;;;;;22.50;11.35;;;512.30;1459.20;;;;;;5036299;28;20079;-63
2023/02/21 10:39:23;;;;;;;18.83;12.20;;;512.40;1459.20;;;;;;5036524;28;20096;-63
2023/02/21 10:41:50;;;;;;;21.50;13.35;;;512.40;1459.20;;;;;;5036362;28;20123;-63
2023/02/21 10:44:26;;;;;;;16.63;11.68;;;512.40;1459.20;;;;;;5036775;28;20044;-63
2023/02/21 10:47:00;;;;;;;17.38;11.57;;;512.30;1484.80;;;;;;5044544;28;20040;-62
2023/02/21 10:49:35;;;;;;;18.17;12.55;;;512.10;1459.20;;;;;;5044486;28;20429;-64
2023/02/21 10:52:15;;;;;;;20.70;14.35;;;512.20;1459.20;;;;;;5036306;28;20021;-62
2023/02/21 10:54:40;;;;;;;21.88;13.43;;;512.30;1459.20;;;;;;5043914;28;20548;-65
2023/02/21 10:57:09;;;;;;;18.55;13.10;;;512.30;1459.20;;;;;;5044110;28;20128;-63
2023/02/21 10:59:41;;;;;;;21.13;13.38;;;512.20;1433.60;;;;;;5036234;28;20514;-63
2023/02/21 11:02:32;;;;;;;17.40;10.88;;;512.00;1433.60;;;;;;5036726;28;20497;-63
2023/02/21 11:05:19;;;;;;;20.63;11.25;;;512.00;1433.60;;;;;;5036166;28;20018;-63
2023/02/21 11:08:01;;;;;;;20.75;13.25;;;512.10;1459.20;;;;;;5036638;28;20100;-64
2023/02/21 11:10:28;;;;;;;21.17;12.57;;;512.10;1459.20;;;;;;5037068;28;20057;-63
2023/02/21 11:13:25;;;;;;;22.25;14.57;;;512.00;1459.20;;;;;;5042494;28;20471;-62
2023/02/21 11:16:06;;;;;;;17.88;13.23;;;512.00;1484.80;;;;;;4968678;28;20457;-63
2023/02/21 11:18:32;;;;;;;27.05;17.38;;;487.30;1459.20;;;;;;4968721;28;20015;-64
2023/02/21 11:21:11;;;;;;;18.75;13.45;;;512.20;1484.80;;;;;;4969500;28;20038;-63
2023/02/21 11:23:52;;;;;;;27.13;17.15;;;512.10;1484.80;;;;;;4969049;28;20033;-63
2023/02/21 11:26:18;;;;;;;26.90;16.73;;;512.10;1510.40;;;;;;4968101;28;20041;-64
2023/02/21 11:28:46;;;;;;;21.55;13.52;;;512.10;1484.80;;;;;;4969827;28;20034;-63
2023/02/21 11:31:28;;;;;;;19.83;14.18;;;512.20;1484.80;;;;;;4969679;28;20026;-64
2023/02/21 11:34:00;;;;;;;18.73;13.05;;;512.10;1484.80;;;;;;4969129;28;20093;-64
2023/02/21 11:36:29;;;;;;;25.65;20.70;;;512.30;1484.80;;;;;;4968211;28;20481;-64
2023/02/21 11:39:26;;;;;;;21.00;14.32;;;512.00;1484.80;;;;;;4969706;28;20118;-64
2023/02/21 11:42:05;;;;;;;26.25;19.08;;;512.00;1484.80;;;;;;4969605;28;20030;-63
2023/02/21 11:44:39;;;;;;;20.63;15.38;;;512.20;1510.40;;;;;;4969440;28;20027;-63
2023/02/21 11:47:25;;;;;;;19.60;17.10;;;512.40;1484.80;;;;;;4979957;28;20022;-65
2023/02/21 11:50:13;;;;;;;62.00;53.78;;;512.10;1510.40;;;;;;4979843;28;20065;-64
2023/02/21 11:53:00;;;;;;;29.27;22.42;;;512.10;1484.80;;;;;;5020244;28;20112;-63
2023/02/21 11:55:26;;;;;;;23.23;15.13;;;512.10;1484.80;;;;;;5038771;28;20542;-63
2023/02/21 11:58:26;;;;;;;30.30;22.73;;;512.00;1510.40;;;;;;5041399;28;20056;-63
2023/02/21 12:01:05;;;;;;;22.25;14.75;;;512.30;1510.40;;;;;;5041366;28;20066;-65
2023/02/21 12:03:50;;;;;;;20.75;12.35;;;512.10;1510.40;;;;;;5041211;28;20430;-66
2023/02/21 12:06:42;;;;;;;22.48;15.00;;;512.20;1484.80;;;;;;5039714;28;20104;-64
2023/02/21 12:09:24;;;;;;;13.43;8.98;;;512.30;1459.20;;;;;;4964997;28;20045;-64
2023/02/21 12:12:25;;;;;;;16.13;11.63;;;512.30;1433.60;;;;;;4966305;28;20405;-64
2023/02/21 12:15:10;;;;;;;18.95;12.38;;;512.40;1459.20;;;;;;4966234;28;20041;-66
2023/02/21 12:18:09;;;;;;;21.90;14.65;;;512.10;1484.80;;;;;;4964713;28;20033;-65
2023/02/21 12:21:09;;;;;;;21.80;12.23;;;512.40;1459.20;;;;;;4963657;28;20035;-64
2023/02/21 12:24:16;;;;;;;20.42;12.48;;;512.50;1459.20;;;;;;4945387;28;20086;-62
2023/02/21 12:26:51;;;;;;;15.25;9.50;;;512.60;1433.60;;;;;;4926654;29;20055;-64
2023/02/21 12:29:41;;;;;;;16.35;12.55;;;512.70;1459.20;;;;;;4926267;29;20032;-64
2023/02/21 12:32:50;;;;;;;25.60;14.73;;;512.40;1433.60;;;;;;4927650;29;20220;-63
2023/02/21 12:35:34;;;;;;;11.15;8.10;;;512.40;1459.20;;;;;;4925304;29;20044;-64
2023/02/21 12:38:17;;;;;;;17.45;10.32;;;512.20;1408.00;;;;;;4926292;29;20028;-63
2023/02/21 12:40:52;;;;;;;29.33;16.95;;;512.50;1408.00;;;;;;4927285;29;20075;-65
2023/02/21 12:43:41;;;;;;;51.05;27.42;;;512.40;1433.60;;;;;;4929226;29;20051;-65
2023/02/21 12:46:13;;;;;;;20.23;14.75;;;512.10;1459.20;;;;;;4975615;28;20162;-64
2023/02/21 12:48:50;;;;;;;17.73;11.65;;;512.40;1433.60;;;;;;5006759;28;20443;-64
2023/02/21 12:51:20;;;;;;;20.30;12.43;;;512.60;1433.60;;;;;;5006624;28;20030;-65
2023/02/21 12:53:52;;;;;;;21.75;14.20;;;512.60;1408.00;;;;;;5006612;28;20109;-65
2023/02/21 12:56:29;;;;;;;26.38;17.45;;;512.80;1408.00;;;;;;5006798;28;20026;-64
2023/02/21 12:59:12;;;;;;;14.68;10.73;;;512.60;1408.00;;;;;;5006745;28;20038;-65
2023/02/21 13:01:51;;;;;;;39.35;24.05;;;512.50;1382.40;;;;;;5006143;28;20061;-66
2023/02/21 13:04:35;;;;;;;24.55;13.57;;;512.60;1408.00;;;;;;5048797;28;20029;-64
2023/02/21 13:07:24;;;;;;;15.57;10.00;;;512.70;1382.40;;;;;;5048543;28;20139;-64
2023/02/21 13:10:24;;;;;;;16.23;10.43;;;512.60;1356.80;;;;;;5048401;28;20041;-64
2023/02/21 13:13:02;;;;;;;16.27;9.93;;;512.60;1356.80;;;;;;5043148;28;20586;-65
2023/02/21 13:15:30;;;;;;;30.67;17.50;;;512.70;1356.80;;;;;;5048234;28;20029;-65
2023/02/21 13:18:00;;;;;;;11.65;8.70;;;512.70;1382.40;;;;;;5048226;28;20045;-64
2023/02/21 13:20:33;;;;;;;19.13;11.23;;;512.50;1356.80;;;;;;5048081;28;20036;-64
2023/02/21 13:23:39;;;;;;;15.85;10.68;;;512.60;1382.40;;;;;;5048263;28;20483;-64
2023/02/21 13:26:29;;;;;;;55.30;26.00;;;512.70;1356.80;;;;;;5047403;28;20049;-64
2023/02/21 13:28:56;;;;;;;23.67;12.52;;;512.60;1356.80;;;;;;5047731;28;20028;-65
2023/02/21 13:31:27;;;;;;;20.02;10.80;;;512.60;1382.40;;;;;;5047981;28;20025;-64
2023/02/21 13:34:01;;;;;;;18.50;8.93;;;512.40;1382.40;;;;;;5047791;28;20025;-64
2023/02/21 13:36:41;;;;;;;14.73;9.82;;;512.60;1356.80;;;;;;5048205;28;20025;-64
2023/02/21 13:39:20;;;;;;;16.08;9.85;;;512.80;1382.40;;;;;;5047526;28;20024;-64
2023/02/21 13:41:55;;;;;;;25.60;14.65;;;512.70;1356.80;;;;;;5047973;28;20021;-64
2023/02/21 13:44:38;;;;;;;19.60;9.77;;;512.80;1356.80;;;;;;5048314;28;20056;-63
2023/02/21 13:47:17;;;;;;;16.98;9.30;;;512.60;1356.80;;;;;;5032257;28;20047;-64
2023/02/21 13:49:47;;;;;;;17.35;9.55;;;512.70;1382.40;;;;;;5032044;28;20488;-64
2023/02/21 13:52:15;;;;;;;16.65;10.52;;;512.80;1382.40;;;;;;5031618;28;20022;-64
2023/02/21 13:55:16;;;;;;;12.32;7.60;;;512.90;1382.40;;;;;;5032029;28;20022;-64
2023/02/21 13:57:42;;;;;;;12.60;8.05;;;512.90;1356.80;;;;;;5031941;28;20097;-64
2023/02/21 14:00:26;;;;;;;11.77;7.82;;;512.90;1356.80;;;;;;5032073;28;20145;-63
2023/02/21 14:03:16;;;;;;;24.13;14.30;;;512.70;1356.80;;;;;;5032030;28;20108;-64
2023/02/21 14:05:45;;;;;;;28.30;14.43;;;512.60;1382.40;;;;;;5031329;28;20116;-65
2023/02/21 14:08:44;;;;;;;15.20;9.70;;;512.60;1408.00;;;;;;5031837;28;20025;-66
2023/02/21 14:11:27;;;;;;;19.23;12.07;;;512.70;1408.00;;;;;;5031923;28;20426;-63
2023/02/21 14:13:58;;;;;;;17.40;9.40;;;512.40;1433.60;;;;;;5031643;28;20041;-64
2023/02/21 14:16:32;;;;;;;19.88;13.18;;;512.50;1408.00;;;;;;5031680;28;20049;-64
2023/02/21 14:19:00;;;;;;;32.08;16.00;;;512.40;1433.60;;;;;;5031223;28;20021;-64
2023/02/21 14:21:31;;;;;;;32.58;20.23;;;512.40;1433.60;;;;;;5031818;28;20056;-64
2023/02/21 14:24:09;;;;;;;47.17;30.88;;;512.60;1433.60;;;;;;5031563;28;20029;-64
2023/02/21 14:26:47;;;;;;;24.13;18.00;;;512.60;1408.00;;;;;;5031570;28;20025;-65
2023/02/21 14:29:31;;;;;;;18.08;11.82;;;512.60;1408.00;;;;;;5031413;28;20049;-63
2023/02/21 14:32:03;;;;;;;23.48;16.50;;;512.50;1433.60;;;;;;5030943;28;20475;-64
2023/02/21 14:34:47;;;;;;;37.25;21.05;;;512.80;1433.60;;;;;;5031669;28;20029;-65
2023/02/21 14:37:18;;;;;;;30.98;14.93;;;512.60;1433.60;;;;;;5031097;28;20053;-64
2023/02/21 14:39:47;;;;;;;25.40;12.05;;;512.40;1459.20;;;;;;5031170;28;20021;-63
2023/02/21 14:42:31;;;;;;;21.83;16.67;;;512.60;1433.60;;;;;;5030602;28;20104;-64